createdAt,value
2019-04-18T00:00:49.333Z,76.04
2019-04-18T00:03:31.866Z,76.04
2019-04-18T00:06:07.854Z,76.13
2019-04-18T00:08:36.454Z,75.74
2019-04-18T00:11:05.599Z,75.74
2019-04-18T00:13:34.193Z,76.29
2019-04-18T00:16:02.851Z,76.72
2019-04-18T00:18:31.467Z,76.80
2019-04-18T00:21:00.013Z,76.49
2019-04-18T00:23:29.275Z,76.88
2019-04-18T00:25:59.152Z,76.74
2019-04-18T00:28:27.726Z,76.47
2019-04-18T00:30:59.695Z,77.13
2019-04-18T00:33:26.854Z,77.38
2019-04-18T00:35:55.792Z,77.02
2019-04-18T00:38:26.833Z,77.11
2019-04-18T00:40:55.389Z,76.90
2019-04-18T00:43:27.056Z,77.29
2019-04-18T00:45:54.227Z,77.29
2019-04-18T00:48:25.680Z,76.74
2019-04-18T00:50:53.211Z,77.21
2019-04-18T00:53:22.553Z,77.84
2019-04-18T00:55:51.119Z,77.84
2019-04-18T00:58:22.560Z,77.55
2019-04-18T01:00:52.799Z,78.21
2019-04-18T01:03:24.652Z,78.21
2019-04-18T01:05:53.189Z,77.38
2019-04-18T01:08:21.769Z,77.55
2019-04-18T01:10:51.981Z,77.99
2019-04-18T01:13:20.626Z,77.99
2019-04-18T01:15:49.254Z,77.60
2019-04-18T01:18:17.855Z,77.42
2019-04-18T01:20:46.690Z,78.29
2019-04-18T01:23:18.176Z,78.84
2019-04-18T01:25:45.846Z,78.81
2019-04-18T01:28:14.478Z,77.85
2019-04-18T01:30:43.096Z,77.84
2019-04-18T01:33:11.840Z,77.84
2019-04-18T01:35:40.783Z,78.43
2019-04-18T01:38:11.268Z,78.43
2019-04-18T01:40:40.162Z,78.68
2019-04-18T01:43:10.405Z,78.58
2019-04-18T01:45:56.853Z,77.77
2019-04-18T01:48:26.896Z,78.44
2019-04-18T01:50:55.619Z,78.13
2019-04-18T01:53:25.005Z,78.13
2019-04-18T01:55:53.621Z,77.81
2019-04-18T01:58:25.066Z,78.37
2019-04-18T02:00:53.694Z,77.88
2019-04-18T02:03:25.236Z,78.82
2019-04-18T02:05:53.891Z,78.82
2019-04-18T02:08:22.511Z,77.82
2019-04-18T02:10:51.117Z,78.13
2019-04-18T02:13:21.787Z,78.13
2019-04-18T02:15:52.145Z,77.55
2019-04-18T02:18:21.828Z,78.19
2019-04-18T02:20:51.001Z,78.31
2019-04-18T02:23:21.980Z,78.32
2019-04-18T02:25:50.374Z,78.32
2019-04-18T02:28:18.982Z,78.45
2019-04-18T02:30:47.625Z,77.33
2019-04-18T02:33:16.330Z,77.22
2019-04-18T02:35:44.865Z,77.22
2019-04-18T02:38:15.955Z,77.51
2019-04-18T02:40:43.827Z,77.51
2019-04-18T02:43:12.400Z,77.96
2019-04-18T02:45:41.066Z,77.96
2019-04-18T02:48:09.773Z,77.88
2019-04-18T02:50:42.197Z,78.26
2019-04-18T02:53:09.968Z,78.64
2019-04-18T02:55:52.305Z,79.62
2019-04-18T02:58:28.808Z,78.43
2019-04-18T03:01:02.018Z,79.11
2019-04-18T03:03:44.426Z,79.11
2019-04-18T03:06:13.477Z,78.45
2019-04-18T03:08:41.905Z,78.37
2019-04-18T03:11:10.473Z,78.78
2019-04-18T03:13:39.141Z,78.78
2019-04-18T03:16:09.465Z,78.86
2019-04-18T03:18:38.088Z,79.04
2019-04-18T03:21:06.812Z,79.93
2019-04-18T03:23:39.257Z,79.35
2019-04-18T03:26:05.783Z,79.57
2019-04-18T03:28:34.406Z,79.96
2019-04-18T03:31:11.969Z,79.94
2019-04-18T03:33:33.269Z,80.62
2019-04-18T03:36:01.903Z,80.62
2019-04-18T03:38:30.513Z,79.99
2019-04-18T03:40:59.120Z,79.47
2019-04-18T03:43:27.818Z,79.47
2019-04-18T03:46:00.947Z,79.43
2019-04-18T03:48:29.557Z,79.24
2019-04-18T03:50:58.166Z,79.05
2019-04-18T03:53:29.820Z,78.94
2019-04-18T03:55:57.208Z,79.91
2019-04-18T03:58:25.694Z,79.68
2019-04-18T04:00:58.027Z,80.12
2019-04-18T04:03:24.982Z,80.34
2019-04-18T04:06:04.483Z,80.29
2019-04-18T04:08:23.936Z,80.28
2019-04-18T04:10:52.642Z,80.90
2019-04-18T04:13:23.110Z,80.52
2019-04-18T04:15:51.720Z,80.74
2019-04-18T04:18:21.977Z,80.87
2019-04-18T04:20:51.364Z,80.06
2019-04-18T04:23:22.707Z,80.86
2019-04-18T04:25:52.794Z,81.13
2019-04-18T04:28:23.918Z,80.65
2019-04-18T04:30:53.529Z,80.22
2019-04-18T04:33:23.629Z,79.98
2019-04-18T04:36:01.055Z,79.98
2019-04-18T04:38:25.381Z,80.45
2019-04-18T04:40:53.929Z,81.28
2019-04-18T04:43:22.506Z,81.28
2019-04-18T04:45:51.059Z,81.03
2019-04-18T04:48:23.467Z,80.82
2019-04-18T04:51:00.607Z,81.51
2019-04-18T04:53:32.181Z,80.73
2019-04-18T04:56:18.852Z,80.87
2019-04-18T04:59:01.296Z,80.63
2019-04-18T05:01:34.440Z,80.95
2019-04-18T05:04:03.645Z,80.45
2019-04-18T05:06:36.477Z,80.61
2019-04-18T05:09:10.943Z,80.03
2019-04-18T05:11:39.941Z,79.38
2019-04-18T05:14:08.944Z,79.16
2019-04-18T05:16:53.707Z,79.16
2019-04-18T05:19:27.483Z,78.20
2019-04-18T05:21:56.288Z,78.20
2019-04-18T05:24:26.279Z,78.30
2019-04-18T05:26:55.579Z,77.84
2019-04-18T05:29:24.504Z,77.45
2019-04-18T05:31:53.932Z,77.45
2019-04-18T05:34:23.623Z,76.16
2019-04-18T05:36:56.624Z,76.16
2019-04-18T05:39:30.265Z,77.05
2019-04-18T05:41:56.998Z,76.52
2019-04-18T05:44:28.332Z,76.52
2019-04-18T05:47:00.944Z,74.24
2019-04-18T05:49:35.738Z,75.81
2019-04-18T05:52:09.889Z,75.28
2019-04-18T05:54:47.415Z,75.28
2019-04-18T05:57:16.365Z,74.34
2019-04-18T05:59:54.402Z,73.59
2019-04-18T06:05:35.007Z,72.76
2019-04-18T06:08:09.556Z,71.49
2019-04-18T06:10:37.679Z,71.96
2019-04-18T06:13:06.775Z,71.62
2019-04-18T06:15:56.466Z,69.93
2019-04-18T06:18:24.687Z,69.04
2019-04-18T06:20:53.578Z,69.13
2019-04-18T06:23:26.997Z,66.68
2019-04-18T06:25:58.417Z,68.59
2019-04-18T06:28:44.502Z,66.03
2019-04-18T06:31:17.484Z,64.82
2019-04-18T06:33:50.954Z,65.40
2019-04-18T06:36:23.238Z,65.13
2019-04-18T06:38:52.767Z,64.54
2019-04-18T06:41:22.957Z,64.21
2019-04-18T06:43:57.405Z,63.55
2019-04-18T06:46:25.421Z,62.33
2019-04-18T06:48:54.038Z,62.85
2019-04-18T06:51:22.614Z,62.33
2019-04-18T06:53:52.328Z,62.64
2019-04-18T06:56:22.980Z,62.65
2019-04-18T06:58:54.514Z,60.20
2019-04-18T07:01:23.079Z,61.95
2019-04-18T07:03:55.817Z,59.92
2019-04-18T07:06:32.820Z,60.91
2019-04-18T07:09:02.069Z,60.24
2019-04-18T07:11:35.680Z,58.50
2019-04-18T07:14:06.984Z,59.46
2019-04-18T07:16:34.614Z,58.84
2019-04-18T07:19:04.868Z,57.09
2019-04-18T07:21:37.042Z,57.76
2019-04-18T07:24:05.473Z,58.23
2019-04-18T07:26:34.027Z,57.33
2019-04-18T07:29:03.017Z,57.69
2019-04-18T07:31:32.273Z,58.54
2019-04-18T07:34:01.150Z,57.43
2019-04-18T07:36:29.754Z,54.15
2019-04-18T07:39:00.938Z,54.87
2019-04-18T07:41:28.663Z,54.45
2019-04-18T07:43:57.226Z,53.36
2019-04-18T07:46:29.343Z,53.07
2019-04-18T07:48:56.719Z,53.70
2019-04-18T07:51:25.365Z,51.89
2019-04-18T07:53:55.641Z,50.84
2019-04-18T07:56:24.371Z,49.42
2019-04-18T07:59:05.705Z,50.62
2019-04-18T08:01:27.860Z,48.18
2019-04-18T08:04:10.736Z,49.61
2019-04-18T08:06:24.970Z,49.73
2019-04-18T08:08:53.579Z,48.00
2019-04-18T08:11:25.378Z,45.96
2019-04-18T08:13:53.940Z,46.77
2019-04-18T08:16:22.932Z,46.86
2019-04-18T08:18:54.630Z,47.17
2019-04-18T08:21:23.212Z,45.30
2019-04-18T08:23:52.135Z,45.48
2019-04-18T08:26:25.100Z,47.34
2019-04-18T08:28:53.845Z,44.94
2019-04-18T08:31:22.425Z,44.89
2019-04-18T08:33:54.535Z,46.54
2019-04-18T08:36:33.156Z,42.90
2019-04-18T08:39:04.938Z,43.91
2019-04-18T08:41:38.201Z,43.05
2019-04-18T08:44:09.081Z,44.29
2019-04-18T08:46:39.376Z,40.38
2019-04-18T08:49:09.909Z,42.94
2019-04-18T08:51:56.624Z,40.66
2019-04-18T08:54:26.879Z,41.15
2019-04-18T08:56:57.135Z,39.61
2019-04-18T08:59:40.802Z,42.15
2019-04-18T09:02:11.420Z,39.47
2019-04-18T09:04:44.035Z,40.59
2019-04-18T09:07:11.064Z,39.62
2019-04-18T09:09:41.171Z,38.40
2019-04-18T09:12:11.175Z,36.86
2019-04-18T09:14:41.773Z,38.33
2019-04-18T09:17:10.738Z,37.44
2019-04-18T09:19:40.886Z,37.78
2019-04-18T09:22:10.572Z,35.21
2019-04-18T09:24:40.372Z,35.12
2019-04-18T09:27:09.983Z,36.29
2019-04-18T09:29:53.126Z,32.88
2019-04-18T09:32:09.821Z,33.47
2019-04-18T09:34:38.332Z,33.18
2019-04-18T09:37:21.822Z,35.15
2019-04-18T09:39:52.127Z,33.76
2019-04-18T09:42:21.016Z,32.55
2019-04-18T09:44:53.836Z,32.74
2019-04-18T09:47:25.424Z,32.45
2019-04-18T09:49:53.983Z,32.95
2019-04-18T09:52:22.585Z,33.12
2019-04-18T09:54:51.129Z,34.95
2019-04-18T09:57:22.312Z,33.40
2019-04-18T10:00:09.099Z,32.67
2019-04-18T10:02:27.976Z,31.09
2019-04-18T10:04:54.732Z,31.93
2019-04-18T10:07:23.339Z,29.82
2019-04-18T10:15:58.872Z,28.73
2019-04-18T10:18:25.122Z,30.37
2019-04-18T10:20:55.443Z,29.82
2019-04-18T10:23:27.306Z,29.07
2019-04-18T10:25:59.022Z,29.72
2019-04-18T10:28:27.591Z,28.32
2019-04-18T10:31:03.426Z,28.04
2019-04-18T10:36:13.359Z,27.96
2019-04-18T10:38:42.010Z,29.30
2019-04-18T10:41:10.573Z,30.91
2019-04-18T10:43:39.151Z,28.06
2019-04-18T10:46:09.885Z,27.29
2019-04-18T10:48:37.994Z,30.85
2019-04-18T10:51:06.620Z,27.88
2019-04-18T10:53:35.280Z,27.80
2019-04-18T10:56:04.005Z,28.88
2019-04-18T10:58:32.564Z,28.77
2019-04-18T11:01:01.236Z,28.38
2019-04-18T11:03:29.812Z,28.11
2019-04-18T11:05:58.360Z,27.59
2019-04-18T11:08:26.922Z,28.18
2019-04-18T11:10:55.572Z,26.85
2019-04-18T11:13:24.197Z,28.50
2019-04-18T11:15:52.770Z,28.10
2019-04-18T11:18:22.828Z,27.71
2019-04-18T11:20:52.908Z,27.24
2019-04-18T11:23:23.048Z,26.86
2019-04-18T11:25:55.595Z,28.22
2019-04-18T11:28:24.978Z,27.45
2019-04-18T11:30:59.410Z,27.91
2019-04-18T11:33:24.365Z,28.39
2019-04-18T11:35:53.316Z,28.57
2019-04-18T11:38:23.578Z,26.54
2019-04-18T11:40:55.375Z,28.00
2019-04-18T11:43:23.984Z,28.17
2019-04-18T11:45:53.005Z,28.66
2019-04-18T11:48:24.608Z,27.82
2019-04-18T11:50:53.545Z,27.60
2019-04-18T11:53:24.775Z,28.62
2019-04-18T11:55:53.347Z,28.05
2019-04-18T11:58:23.496Z,27.41
2019-04-18T12:01:17.736Z,28.97
2019-04-18T12:03:51.829Z,27.27
2019-04-18T12:06:22.047Z,30.80
2019-04-18T12:08:50.645Z,27.79
2019-04-18T12:11:19.224Z,27.79
2019-04-18T12:13:47.775Z,28.72
2019-04-18T12:19:26.060Z,28.90
2019-04-18T12:21:54.637Z,28.72
2019-04-18T12:24:23.539Z,28.27
2019-04-18T12:26:53.664Z,29.71
2019-04-18T12:29:24.872Z,29.66
2019-04-18T12:31:53.667Z,28.25
2019-04-18T12:34:25.587Z,27.67
2019-04-18T12:36:54.288Z,28.06
2019-04-18T12:39:22.842Z,28.36
2019-04-18T12:41:52.928Z,27.91
2019-04-18T12:44:24.398Z,27.08
2019-04-18T12:46:53.116Z,28.10
2019-04-18T12:49:24.641Z,27.25
2019-04-18T12:52:08.645Z,25.60
2019-04-18T12:54:23.604Z,27.99
2019-04-18T12:56:55.067Z,27.31
2019-04-18T12:59:23.621Z,26.48
2019-04-18T13:01:54.908Z,27.41
2019-04-18T13:04:23.860Z,26.67
2019-04-18T13:06:52.520Z,27.42
2019-04-18T13:09:22.715Z,26.79
2019-04-18T13:12:12.267Z,25.75
2019-04-18T13:17:54.620Z,26.02
2019-04-18T13:20:23.243Z,25.59
2019-04-18T13:22:51.885Z,25.94
2019-04-18T13:25:20.835Z,25.33
2019-04-18T13:27:49.762Z,26.17
2019-04-18T13:30:22.165Z,25.85
2019-04-18T13:32:53.734Z,25.71
2019-04-18T13:35:25.860Z,26.79
2019-04-18T13:37:54.571Z,26.11
2019-04-18T13:40:23.757Z,26.71
2019-04-18T13:42:55.362Z,27.38
2019-04-18T13:45:24.092Z,26.77
2019-04-18T13:47:52.668Z,26.15
2019-04-18T13:50:22.835Z,26.16
2019-04-18T13:52:53.012Z,24.60
2019-04-18T13:55:24.790Z,27.16
2019-04-18T13:57:56.705Z,27.19
2019-04-18T14:00:26.873Z,27.38
2019-04-18T14:02:57.165Z,27.98
2019-04-18T14:05:27.316Z,27.36
2019-04-18T14:07:56.302Z,26.77
2019-04-18T14:10:24.919Z,26.67
2019-04-18T14:12:53.487Z,26.11
2019-04-18T14:15:23.800Z,25.37
2019-04-18T14:17:55.590Z,25.79
2019-04-18T14:20:22.808Z,26.18
2019-04-18T14:22:52.895Z,26.44
2019-04-18T14:25:24.251Z,25.22
2019-04-18T14:27:52.940Z,26.74
2019-04-18T14:30:24.339Z,26.37
2019-04-18T14:32:52.924Z,27.05
2019-04-18T14:35:23.384Z,26.05
2019-04-18T14:37:52.496Z,26.22
2019-04-18T14:40:24.628Z,27.32
2019-04-18T14:42:55.377Z,26.94
2019-04-18T14:45:23.684Z,26.01
2019-04-18T14:48:06.927Z,27.68
2019-04-18T14:50:25.652Z,27.72
2019-04-18T14:52:54.229Z,28.46
2019-04-18T14:55:23.160Z,28.27
2019-04-18T14:57:56.607Z,26.30
2019-04-18T15:00:41.804Z,28.29
2019-04-18T15:02:57.006Z,26.27
2019-04-18T15:05:28.311Z,26.82
2019-04-18T15:07:56.865Z,26.45
2019-04-18T15:10:27.082Z,26.00
2019-04-18T15:12:55.907Z,26.17
2019-04-18T15:15:24.547Z,26.28
2019-04-18T15:17:53.105Z,26.30
2019-04-18T15:20:25.396Z,26.03
2019-04-18T15:22:53.952Z,25.18
2019-04-18T15:25:22.616Z,25.08
2019-04-18T15:27:52.749Z,24.98
2019-04-18T15:30:23.131Z,24.39
2019-04-18T15:33:05.382Z,24.29
2019-04-18T15:35:22.522Z,23.84
2019-04-18T15:37:51.519Z,24.29
2019-04-18T15:40:24.996Z,25.49
2019-04-18T15:42:53.900Z,25.31
2019-04-18T15:45:33.376Z,24.35
2019-04-18T15:48:03.931Z,25.15
2019-04-18T15:50:32.551Z,25.04
2019-04-18T15:53:01.958Z,25.75
2019-04-18T15:55:30.662Z,25.35
2019-04-18T15:57:59.227Z,25.73
2019-04-18T16:00:29.886Z,25.09
2019-04-18T16:02:58.470Z,25.54
2019-04-18T16:05:30.419Z,25.94
2019-04-18T16:07:59.731Z,26.92
2019-04-18T16:10:28.661Z,27.64
2019-04-18T16:12:57.848Z,27.84
2019-04-18T16:15:28.209Z,28.27
2019-04-18T16:17:56.841Z,28.75
2019-04-18T16:20:28.104Z,28.97
2019-04-18T16:22:56.926Z,29.84
2019-04-18T16:25:25.641Z,30.34
2019-04-18T16:27:54.538Z,29.96
2019-04-18T16:30:28.124Z,30.65
2019-04-18T16:32:57.615Z,30.90
2019-04-18T16:35:27.201Z,30.33
2019-04-18T16:37:56.002Z,32.27
2019-04-18T16:40:25.325Z,30.72
2019-04-18T16:42:54.150Z,31.33
2019-04-18T16:45:22.883Z,30.85
2019-04-18T16:47:51.625Z,31.03
2019-04-18T16:50:23.276Z,31.77
2019-04-18T16:52:51.897Z,31.14
2019-04-18T16:55:20.645Z,30.74
2019-04-18T16:57:49.466Z,31.68
2019-04-18T17:00:23.825Z,32.41
2019-04-18T17:02:52.451Z,32.37
2019-04-18T17:05:22.992Z,32.85
2019-04-18T17:07:54.786Z,33.29
2019-04-18T17:10:24.010Z,33.08
2019-04-18T17:12:52.628Z,34.00
2019-04-18T17:15:21.751Z,32.42
2019-04-18T17:17:52.104Z,32.49
2019-04-18T17:20:34.890Z,33.54
2019-04-18T17:23:21.381Z,33.11
2019-04-18T17:25:50.740Z,34.16
2019-04-18T17:28:23.090Z,34.58
2019-04-18T17:30:53.821Z,33.93
2019-04-18T17:33:22.692Z,34.02
2019-04-18T17:36:02.594Z,35.12
2019-04-18T17:38:49.752Z,36.07
2019-04-18T17:41:01.548Z,34.91
2019-04-18T17:43:25.184Z,35.81
2019-04-18T17:46:02.971Z,36.26
2019-04-18T17:48:33.287Z,36.53
2019-04-18T17:51:03.238Z,35.66
2019-04-18T17:53:44.632Z,36.03
2019-04-18T17:56:12.997Z,37.34
2019-04-18T17:58:33.083Z,37.59
2019-04-18T18:01:02.999Z,37.29
2019-04-18T18:03:39.250Z,36.93
2019-04-18T18:06:13.436Z,36.54
2019-04-18T18:08:32.654Z,36.90
2019-04-18T18:11:08.442Z,36.73
2019-04-18T18:13:31.804Z,36.94
2019-04-18T18:16:08.779Z,36.86
2019-04-18T18:18:40.557Z,37.16
2019-04-18T18:21:09.284Z,37.59
2019-04-18T18:23:38.680Z,37.65
2019-04-18T18:26:12.573Z,37.69
2019-04-18T18:28:38.350Z,37.93
2019-04-18T18:31:12.998Z,38.06
2019-04-18T18:33:39.653Z,39.12
2019-04-18T18:36:19.640Z,39.14
2019-04-18T18:38:41.149Z,39.60
2019-04-18T18:41:12.632Z,39.80
2019-04-18T18:43:40.334Z,40.31
2019-04-18T18:46:09.237Z,40.98
2019-04-18T18:48:44.890Z,41.58
2019-04-18T18:51:09.979Z,41.90
2019-04-18T18:53:39.516Z,41.87
2019-04-18T18:56:14.354Z,42.21
2019-04-18T18:58:38.565Z,42.11
2019-04-18T19:01:11.940Z,42.21
2019-04-18T19:03:37.945Z,42.78
2019-04-18T19:06:15.265Z,43.04
2019-04-18T19:11:26.865Z,43.60
2019-04-18T19:13:55.499Z,43.66
2019-04-18T19:16:25.928Z,44.24
2019-04-18T19:18:38.966Z,44.01
2019-04-18T19:21:08.366Z,44.36
2019-04-18T19:23:37.944Z,44.59
2019-04-18T19:26:09.887Z,44.64
2019-04-18T19:28:51.259Z,44.59
2019-04-18T19:31:13.584Z,44.90
2019-04-18T19:33:39.989Z,44.80
2019-04-18T19:36:32.436Z,45.54
2019-04-18T19:38:57.952Z,45.08
2019-04-18T19:41:21.328Z,45.82
2019-04-18T19:43:42.101Z,45.99
2019-04-18T19:46:11.011Z,45.91
2019-04-18T19:48:40.091Z,45.92
2019-04-18T19:51:09.721Z,45.84
2019-04-18T19:53:45.824Z,45.70
2019-04-18T19:56:13.314Z,45.88
2019-04-18T19:58:39.374Z,45.85
2019-04-18T20:01:08.785Z,46.05
2019-04-18T20:03:38.220Z,46.20
2019-04-18T20:06:17.767Z,46.67
2019-04-18T20:08:51.655Z,46.84
2019-04-18T20:11:22.283Z,46.57
2019-04-18T20:13:43.262Z,46.32
2019-04-18T20:16:09.663Z,46.57
2019-04-18T20:18:39.234Z,47.00
2019-04-18T20:21:07.999Z,46.94
2019-04-18T20:23:36.919Z,46.87
2019-04-18T20:26:05.757Z,47.02
2019-04-18T20:28:40.331Z,47.48
2019-04-18T20:31:07.263Z,47.56
2019-04-18T20:33:36.334Z,47.42
2019-04-18T20:36:30.727Z,47.53
2019-04-18T20:39:04.267Z,47.63
2019-04-18T20:41:33.590Z,47.75
2019-04-18T20:43:57.525Z,47.81
2019-04-18T20:49:01.103Z,48.67
2019-04-18T20:51:12.946Z,48.74
2019-04-18T20:54:00.891Z,49.23
2019-04-18T20:56:12.411Z,50.15
2019-04-18T20:58:40.067Z,50.47
2019-04-18T21:01:09.021Z,50.40
2019-04-18T21:03:40.490Z,50.31
2019-04-18T21:06:13.234Z,50.33
2019-04-18T21:08:48.467Z,50.64
2019-04-18T21:11:08.972Z,51.08
2019-04-18T21:13:37.582Z,51.35
2019-04-18T21:16:09.312Z,50.68
2019-04-18T21:18:38.508Z,51.02
2019-04-18T21:21:06.942Z,51.55
2019-04-18T21:23:36.934Z,51.74
2019-04-18T21:26:15.001Z,51.75
2019-04-18T21:28:41.011Z,51.97
2019-04-18T21:31:10.642Z,53.16
2019-04-18T21:33:41.086Z,52.77
2019-04-18T21:36:15.012Z,52.83
2019-04-18T21:38:49.822Z,52.67
2019-04-18T21:41:11.894Z,52.53
2019-04-18T21:43:40.965Z,52.54
2019-04-18T21:46:11.086Z,52.87
2019-04-18T21:48:49.575Z,53.93
2019-04-18T21:51:13.659Z,53.32
2019-04-18T21:53:40.951Z,53.46
2019-04-18T21:56:11.763Z,53.07
2019-04-18T21:58:52.537Z,53.61
2019-04-18T22:01:14.448Z,53.85
2019-04-18T22:03:48.699Z,53.81
2019-04-18T22:06:15.094Z,53.96
2019-04-18T22:08:44.371Z,54.22
2019-04-18T22:11:15.599Z,54.39
2019-04-18T22:13:44.633Z,54.61
2019-04-18T22:16:13.428Z,54.49
2019-04-18T22:18:42.046Z,54.50
2019-04-18T22:21:13.437Z,54.80
2019-04-18T22:23:44.048Z,55.10
2019-04-18T22:26:12.605Z,55.51
2019-04-18T22:28:44.984Z,55.58
2019-04-18T22:31:12.835Z,55.80
2019-04-18T22:33:45.011Z,56.15
2019-04-18T22:36:19.106Z,56.54
2019-04-18T22:38:46.206Z,56.55
2019-04-18T22:41:13.188Z,56.06
2019-04-18T22:43:42.716Z,57.09
2019-04-18T22:46:13.141Z,57.24
2019-04-18T22:48:43.663Z,57.29
2019-04-18T22:51:13.771Z,57.46
2019-04-18T22:53:49.097Z,57.21
2019-04-18T22:56:15.380Z,57.57
2019-04-18T22:58:51.352Z,57.98
2019-04-18T23:01:18.620Z,58.40
2019-04-18T23:03:45.495Z,57.86
2019-04-18T23:06:14.559Z,57.47
2019-04-18T23:08:55.020Z,57.35
2019-04-18T23:11:15.099Z,57.01
2019-04-18T23:13:45.618Z,57.88
2019-04-18T23:16:17.383Z,58.11
2019-04-18T23:18:44.926Z,59.38
2019-04-18T23:21:15.672Z,59.26
2019-04-18T23:23:51.038Z,59.52
2019-04-18T23:26:18.272Z,59.24
2019-04-18T23:28:48.011Z,59.42
2019-04-18T23:31:19.449Z,58.65
2019-04-18T23:33:56.384Z,58.59
2019-04-18T23:36:18.966Z,58.39
2019-04-18T23:38:48.977Z,58.82
2019-04-18T23:41:20.492Z,57.94
2019-04-18T23:43:48.073Z,58.58
2019-04-18T23:46:21.417Z,58.89
2019-04-18T23:48:48.112Z,59.02
2019-04-18T23:51:17.412Z,60.35
2019-04-18T23:53:50.255Z,59.07
2019-04-18T23:56:18.030Z,59.14
2019-04-18T23:58:51.448Z,58.96
